sensor_id;sensor_type;location;lat;lon;timestamp;temperature;humidity
56172;DHT22;42052;41.634;-0.946;2023-04-24T16:59:51;23.70;45.30
56172;DHT22;42052;41.634;-0.946;2023-04-24T17:02:38;23.70;45.50
56172;DHT22;42052;41.634;-0.946;2023-04-24T17:05:26;23.70;45.50
56172;DHT22;42052;41.634;-0.946;2023-04-24T17:08:12;23.70;45.40
56172;DHT22;42052;41.634;-0.946;2023-04-24T17:10:58;23.70;45.50
56172;DHT22;42052;41.634;-0.946;2023-04-24T17:13:45;23.70;45.50
56172;DHT22;42052;41.634;-0.946;2023-04-24T17:16:31;23.70;45.50
56172;DHT22;42052;41.634;-0.946;2023-04-24T17:19:18;23.70;45.50
56172;DHT22;42052;41.634;-0.946;2023-04-24T17:22:04;23.70;45.50
56172;DHT22;42052;41.634;-0.946;2023-04-24T17:24:50;23.70;45.60
56172;DHT22;42052;41.634;-0.946;2023-04-24T17:27:37;23.60;45.60
56172;DHT22;42052;41.634;-0.946;2023-04-24T17:30:23;23.70;45.60
56172;DHT22;42052;41.634;-0.946;2023-04-24T17:33:09;23.70;45.60
56172;DHT22;42052;41.634;-0.946;2023-04-24T17:35:56;23.70;45.50
56172;DHT22;42052;41.634;-0.946;2023-04-24T17:38:48;23.70;45.60
56172;DHT22;42052;41.634;-0.946;2023-04-24T17:41:35;23.70;45.70
56172;DHT22;42052;41.634;-0.946;2023-04-24T17:44:22;23.70;45.60
56172;DHT22;42052;41.634;-0.946;2023-04-24T17:47:08;23.70;45.60
56172;DHT22;42052;41.634;-0.946;2023-04-24T17:49:54;23.70;45.60
56172;DHT22;42052;41.634;-0.946;2023-04-24T17:52:40;23.70;45.60
56172;DHT22;42052;41.634;-0.946;2023-04-24T17:55:26;23.70;45.60
56172;DHT22;42052;41.634;-0.946;2023-04-24T17:58:13;23.70;45.60
56172;DHT22;42052;41.634;-0.946;2023-04-24T18:00:59;23.70;45.60
56172;DHT22;42052;41.634;-0.946;2023-04-24T18:03:46;23.70;45.60
56172;DHT22;42052;41.634;-0.946;2023-04-24T18:06:32;23.70;45.70
56172;DHT22;42052;41.634;-0.946;2023-04-24T18:09:18;23.70;45.60
56172;DHT22;42052;41.634;-0.946;2023-04-24T18:12:05;23.70;45.60
56172;DHT22;42052;41.634;-0.946;2023-04-24T18:14:52;23.70;45.60
56172;DHT22;42052;41.634;-0.946;2023-04-24T18:17:38;23.70;46.40
56172;DHT22;42052;41.634;-0.946;2023-04-24T18:20:25;23.70;45.60
56172;DHT22;42052;41.634;-0.946;2023-04-24T18:23:11;23.70;45.70
56172;DHT22;42052;41.634;-0.946;2023-04-24T18:25:57;23.70;45.70
56172;DHT22;42052;41.634;-0.946;2023-04-24T18:28:43;23.70;45.80
56172;DHT22;42052;41.634;-0.946;2023-04-24T18:31:29;23.70;45.80
56172;DHT22;42052;41.634;-0.946;2023-04-24T18:34:17;23.70;45.80
56172;DHT22;42052;41.634;-0.946;2023-04-24T18:37:03;23.70;45.80
56172;DHT22;42052;41.634;-0.946;2023-04-24T18:39:50;23.70;46.50
56172;DHT22;42052;41.634;-0.946;2023-04-24T18:42:38;23.70;45.80
56172;DHT22;42052;41.634;-0.946;2023-04-24T18:45:25;23.60;45.90
56172;DHT22;42052;41.634;-0.946;2023-04-24T18:48:11;23.60;45.90
56172;DHT22;42052;41.634;-0.946;2023-04-24T18:50:57;23.60;45.90
56172;DHT22;42052;41.634;-0.946;2023-04-24T18:53:43;23.60;45.90
56172;DHT22;42052;41.634;-0.946;2023-04-24T18:56:30;23.60;45.90
56172;DHT22;42052;41.634;-0.946;2023-04-24T18:59:17;23.60;45.90
56172;DHT22;42052;41.634;-0.946;2023-04-24T19:02:03;23.60;45.80
56172;DHT22;42052;41.634;-0.946;2023-04-24T19:04:49;23.60;45.80
56172;DHT22;42052;41.634;-0.946;2023-04-24T19:07:35;23.70;45.80
56172;DHT22;42052;41.634;-0.946;2023-04-24T19:10:21;23.70;45.90
56172;DHT22;42052;41.634;-0.946;2023-04-24T19:13:07;23.70;45.90
56172;DHT22;42052;41.634;-0.946;2023-04-24T19:15:54;23.60;45.90
56172;DHT22;42052;41.634;-0.946;2023-04-24T19:18:40;23.70;45.90
56172;DHT22;42052;41.634;-0.946;2023-04-24T19:21:27;23.70;46.00
56172;DHT22;42052;41.634;-0.946;2023-04-24T19:24:13;23.70;46.00
56172;DHT22;42052;41.634;-0.946;2023-04-24T19:26:59;23.60;46.00
56172;DHT22;42052;41.634;-0.946;2023-04-24T19:29:46;23.70;46.40
56172;DHT22;42052;41.634;-0.946;2023-04-24T19:32:33;23.70;46.00
56172;DHT22;42052;41.634;-0.946;2023-04-24T19:35:19;23.70;46.00
56172;DHT22;42052;41.634;-0.946;2023-04-24T19:38:05;23.70;45.90
56172;DHT22;42052;41.634;-0.946;2023-04-24T19:40:52;23.60;46.00
56172;DHT22;42052;41.634;-0.946;2023-04-24T19:43:38;23.70;46.00
56172;DHT22;42052;41.634;-0.946;2023-04-24T19:46:25;23.60;46.00
56172;DHT22;42052;41.634;-0.946;2023-04-24T19:49:11;23.60;46.00
56172;DHT22;42052;41.634;-0.946;2023-04-24T19:52:00;23.60;45.90
56172;DHT22;42052;41.634;-0.946;2023-04-24T19:54:46;23.60;46.00
56172;DHT22;42052;41.634;-0.946;2023-04-24T19:57:32;23.60;46.00
56172;DHT22;42052;41.634;-0.946;2023-04-24T20:00:18;23.60;46.00
56172;DHT22;42052;41.634;-0.946;2023-04-24T20:03:04;23.60;45.90
56172;DHT22;42052;41.634;-0.946;2023-04-24T20:05:50;23.60;45.80
56172;DHT22;42052;41.634;-0.946;2023-04-24T20:08:36;23.70;46.00
56172;DHT22;42052;41.634;-0.946;2023-04-24T20:11:24;23.60;45.90
56172;DHT22;42052;41.634;-0.946;2023-04-24T20:14:10;23.60;45.90
56172;DHT22;42052;41.634;-0.946;2023-04-24T20:16:56;23.60;45.90
56172;DHT22;42052;41.634;-0.946;2023-04-24T20:19:43;23.60;45.80
56172;DHT22;42052;41.634;-0.946;2023-04-24T20:22:29;23.60;45.80
56172;DHT22;42052;41.634;-0.946;2023-04-24T20:25:20;23.60;45.80
56172;DHT22;42052;41.634;-0.946;2023-04-24T20:28:06;23.50;45.70
56172;DHT22;42052;41.634;-0.946;2023-04-24T20:30:52;23.50;45.70
56172;DHT22;42052;41.634;-0.946;2023-04-24T20:33:39;23.50;45.80
56172;DHT22;42052;41.634;-0.946;2023-04-24T20:36:26;23.60;45.80
56172;DHT22;42052;41.634;-0.946;2023-04-24T20:39:12;23.60;45.80
56172;DHT22;42052;41.634;-0.946;2023-04-24T20:41:59;23.60;45.80
56172;DHT22;42052;41.634;-0.946;2023-04-24T20:44:45;23.60;46.10
56172;DHT22;42052;41.634;-0.946;2023-04-24T20:47:31;23.50;45.70
56172;DHT22;42052;41.634;-0.946;2023-04-24T20:50:17;23.60;45.70
56172;DHT22;42052;41.634;-0.946;2023-04-24T20:53:04;23.50;45.60
56172;DHT22;42052;41.634;-0.946;2023-04-24T20:55:51;23.50;45.50
56172;DHT22;42052;41.634;-0.946;2023-04-24T20:58:37;23.60;45.50
56172;DHT22;42052;41.634;-0.946;2023-04-24T21:01:23;23.60;45.40
56172;DHT22;42052;41.634;-0.946;2023-04-24T21:04:10;23.60;45.50
56172;DHT22;42052;41.634;-0.946;2023-04-24T21:06:56;23.60;45.30
56172;DHT22;42052;41.634;-0.946;2023-04-24T21:09:42;23.60;45.30
56172;DHT22;42052;41.634;-0.946;2023-04-24T21:12:28;23.60;45.40
56172;DHT22;42052;41.634;-0.946;2023-04-24T21:15:14;23.60;45.30
56172;DHT22;42052;41.634;-0.946;2023-04-24T21:18:01;23.60;45.50
56172;DHT22;42052;41.634;-0.946;2023-04-24T21:20:48;23.60;45.50
56172;DHT22;42052;41.634;-0.946;2023-04-24T21:23:35;23.60;45.50
56172;DHT22;42052;41.634;-0.946;2023-04-24T21:26:21;23.50;45.50
56172;DHT22;42052;41.634;-0.946;2023-04-24T21:29:07;23.60;45.70
56172;DHT22;42052;41.634;-0.946;2023-04-24T21:31:53;23.70;45.60
56172;DHT22;42052;41.634;-0.946;2023-04-24T21:34:39;23.70;45.50
56172;DHT22;42052;41.634;-0.946;2023-04-24T21:37:26;23.70;45.50
56172;DHT22;42052;41.634;-0.946;2023-04-24T21:40:12;23.70;45.50
56172;DHT22;42052;41.634;-0.946;2023-04-24T21:43:00;23.80;45.60
56172;DHT22;42052;41.634;-0.946;2023-04-24T21:45:47;23.70;46.50
56172;DHT22;42052;41.634;-0.946;2023-04-24T21:48:33;23.70;45.50
56172;DHT22;42052;41.634;-0.946;2023-04-24T21:51:19;23.70;45.60
56172;DHT22;42052;41.634;-0.946;2023-04-24T21:54:05;23.70;45.60
56172;DHT22;42052;41.634;-0.946;2023-04-24T21:56:52;23.70;45.60
56172;DHT22;42052;41.634;-0.946;2023-04-24T21:59:38;23.70;45.70
56172;DHT22;42052;41.634;-0.946;2023-04-24T22:02:24;23.70;45.70
56172;DHT22;42052;41.634;-0.946;2023-04-24T22:05:11;23.60;45.70
56172;DHT22;42052;41.634;-0.946;2023-04-24T22:08:00;23.60;45.90
56172;DHT22;42052;41.634;-0.946;2023-04-24T22:10:46;23.50;45.90
56172;DHT22;42052;41.634;-0.946;2023-04-24T22:13:33;23.50;45.90
56172;DHT22;42052;41.634;-0.946;2023-04-24T22:16:21;23.50;45.80
56172;DHT22;42052;41.634;-0.946;2023-04-24T22:19:08;23.60;45.60
56172;DHT22;42052;41.634;-0.946;2023-04-24T22:21:55;23.60;45.50
56172;DHT22;42052;41.634;-0.946;2023-04-24T22:24:41;23.60;45.60
56172;DHT22;42052;41.634;-0.946;2023-04-24T22:27:28;23.60;45.60
56172;DHT22;42052;41.634;-0.946;2023-04-24T22:30:14;23.50;45.60
56172;DHT22;42052;41.634;-0.946;2023-04-24T22:33:00;23.50;45.60
56172;DHT22;42052;41.634;-0.946;2023-04-24T22:35:47;23.50;45.50
56172;DHT22;42052;41.634;-0.946;2023-04-24T22:38:33;23.50;45.60
56172;DHT22;42052;41.634;-0.946;2023-04-24T22:41:20;23.50;45.50
56172;DHT22;42052;41.634;-0.946;2023-04-24T22:44:07;23.50;45.40
56172;DHT22;42052;41.634;-0.946;2023-04-24T22:46:53;23.50;45.50
56172;DHT22;42052;41.634;-0.946;2023-04-24T22:49:39;23.50;45.40
56172;DHT22;42052;41.634;-0.946;2023-04-24T22:52:27;23.60;45.50
56172;DHT22;42052;41.634;-0.946;2023-04-24T22:55:15;23.60;45.60
56172;DHT22;42052;41.634;-0.946;2023-04-24T22:58:01;23.50;45.40
56172;DHT22;42052;41.634;-0.946;2023-04-24T23:00:47;23.50;45.40
56172;DHT22;42052;41.634;-0.946;2023-04-24T23:03:33;23.60;45.60
56172;DHT22;42052;41.634;-0.946;2023-04-24T23:06:20;23.50;45.50
56172;DHT22;42052;41.634;-0.946;2023-04-24T23:09:06;23.50;45.60
56172;DHT22;42052;41.634;-0.946;2023-04-24T23:11:53;23.50;45.60
56172;DHT22;42052;41.634;-0.946;2023-04-24T23:14:40;23.60;45.60
56172;DHT22;42052;41.634;-0.946;2023-04-24T23:17:26;23.50;45.60
56172;DHT22;42052;41.634;-0.946;2023-04-24T23:20:14;23.50;45.60
56172;DHT22;42052;41.634;-0.946;2023-04-24T23:23:00;23.50;45.70
56172;DHT22;42052;41.634;-0.946;2023-04-24T23:25:47;23.50;45.80
56172;DHT22;42052;41.634;-0.946;2023-04-24T23:28:33;23.50;45.90
56172;DHT22;42052;41.634;-0.946;2023-04-24T23:31:21;23.40;45.90
56172;DHT22;42052;41.634;-0.946;2023-04-24T23:34:07;23.50;46.00
56172;DHT22;42052;41.634;-0.946;2023-04-24T23:36:54;23.50;46.90
56172;DHT22;42052;41.634;-0.946;2023-04-24T23:39:40;23.40;46.10
56172;DHT22;42052;41.634;-0.946;2023-04-24T23:42:26;23.50;46.20
56172;DHT22;42052;41.634;-0.946;2023-04-24T23:45:14;23.50;46.30
56172;DHT22;42052;41.634;-0.946;2023-04-24T23:48:00;23.50;46.30
56172;DHT22;42052;41.634;-0.946;2023-04-24T23:50:46;23.50;46.40
56172;DHT22;42052;41.634;-0.946;2023-04-24T23:53:33;23.40;46.50
56172;DHT22;42052;41.634;-0.946;2023-04-24T23:56:19;23.50;46.50
56172;DHT22;42052;41.634;-0.946;2023-04-24T23:59:09;23.40;46.50
